Station History


Daily Summary for January 23, 2012 Units:  English    Metric   Both
« Previous Day
Next Day »
Daily Weekly Monthly Yearly Custom
  High: Low: Average:
Temperature: 64.3 °F 46.9 °F 52.6 °F
Dew Point: 54.7 °F 42.3 °F 48.6 °F
Humidity: 97% 62% 87%
Wind Speed: 9.2mph 0.0mph 2.1mph
Wind Gust: 9.2mph - -
Wind- - South
Pressure: 30.13 in 29.84 in -
Precipitation: 0.46 in    
Historical Graphs
 
 
Tabular Data for January 23, 2012
Time Temperature Dew Point Pressure Wind Wind Speed Wind Gust Humidity Rainfall Rate (Hourly)
00:01 49.9 °F 42.3 °F 29.99 in Calm     75% 0.00 in
00:06 50.0 °F 42.7 °F 29.99 in Calm     76% 0.00 in
00:11 50.0 °F 42.7 °F 30.00 in Calm     76% 0.00 in
00:16 50.0 °F 43.1 °F 30.00 in Calm     77% 0.00 in
00:21 50.0 °F 43.1 °F 30.00 in Calm     77% 0.00 in
00:27 50.0 °F 43.4 °F 30.00 in Calm     78% 0.00 in
00:32 49.8 °F 43.9 °F 30.01 in Calm     80% 0.01 in
00:37 49.5 °F 44.2 °F 30.01 in Calm     82% 0.02 in
00:42 49.2 °F 44.9 °F 30.01 in Calm     85% 0.03 in
00:47 48.9 °F 44.6 °F 30.02 in Calm   0.2 mph 85% 0.03 in
00:52 48.7 °F 44.4 °F 30.02 in Calm     85% 0.03 in
00:57 48.5 °F 44.8 °F 30.02 in NE 1.2 mph   87% 0.04 in
01:02 48.3 °F 44.3 °F 30.01 in ENE 1.2 mph 1.2 mph 86% 0.05 in
01:07 48.4 °F 44.1 °F 29.98 in NE 4.6 mph 4.6 mph 85% 0.05 in
01:12 48.8 °F 44.2 °F 29.97 in SE 3.5 mph 3.5 mph 84% 0.07 in
01:17 48.8 °F 44.5 °F 29.98 in SE 1.2 mph   85% 0.07 in
01:22 48.7 °F 44.4 °F 29.99 in ENE 2.0 mph 2.0 mph 85% 0.08 in
01:27 48.8 °F 44.8 °F 29.99 in ENE 1.0 mph 1.0 mph 86% 0.10 in
01:32 48.5 °F 44.8 °F 30.00 in North 2.3 mph 2.3 mph 87% 0.10 in
01:37 48.3 °F 44.9 °F 30.00 in Calm     88% 0.10 in
01:42 48.1 °F 44.7 °F 30.00 in North 1.0 mph 1.0 mph 88% 0.10 in
01:47 48.1 °F 45.0 °F 30.00 in NE 1.2 mph 1.2 mph 89% 0.12 in
01:52 48.2 °F 44.8 °F 29.99 in ENE 3.5 mph 3.5 mph 88% 0.13 in
01:57 48.2 °F 44.8 °F 30.00 in Calm     88% 0.13 in
02:02 48.1 °F 44.7 °F 29.99 in Calm     88% 0.13 in
02:07 48.1 °F 45.0 °F 29.97 in ENE 1.0 mph 1.0 mph 89% 0.14 in
02:13 48.4 °F 45.3 °F 29.96 in East 3.5 mph 3.5 mph 89% 0.14 in
02:18 48.7 °F 45.6 °F 29.95 in ENE 3.5 mph 3.5 mph 89% 0.14 in
02:23 49.1 °F 45.7 °F 29.95 in Calm   0.1 mph 88% 0.13 in
02:28 49.3 °F 45.9 °F 29.95 in Calm     88% 0.11 in
02:33 49.3 °F 46.2 °F 29.97 in Calm     89% 0.10 in
02:38 49.3 °F 46.5 °F 29.95 in ENE 3.5 mph 3.5 mph 90% 0.10 in
02:43 49.6 °F 46.5 °F 29.94 in Calm     89% 0.10 in
02:48 49.7 °F 46.6 °F 29.92 in ESE 3.5 mph 3.5 mph 89% 0.08 in
02:53 49.8 °F 46.7 °F 29.93 in Calm     89% 0.08 in
02:58 49.8 °F 46.7 °F 29.92 in East 2.3 mph 2.3 mph 89% 0.07 in
03:03 49.9 °F 46.5 °F 29.92 in East 3.5 mph 3.5 mph 88% 0.05 in
03:08 50.3 °F 46.6 °F 29.92 in East 1.2 mph 1.2 mph 87% 0.04 in
03:13 50.5 °F 46.5 °F 29.93 in East 1.2 mph 1.2 mph 86% 0.03 in
03:18 50.5 °F 46.5 °F 29.93 in Calm     86% 0.03 in
03:23 50.4 °F 46.4 °F 29.92 in East 1.2 mph 1.2 mph 86% 0.04 in
03:28 50.4 °F 46.4 °F 29.92 in Calm     86% 0.04 in
03:33 50.2 °F 46.5 °F 29.91 in Calm     87% 0.04 in
03:38 50.0 °F 46.6 °F 29.90 in Calm     88% 0.03 in
03:43 49.9 °F 46.5 °F 29.90 in Calm     88% 0.02 in
03:48 50.0 °F 46.6 °F 29.90 in Calm     88% 0.02 in
03:53 50.0 °F 46.6 °F 29.90 in Calm     88% 0.01 in
03:58 50.0 °F 46.6 °F 29.90 in Calm     88% 0.01 in
04:03 49.9 °F 46.5 °F 29.90 in Calm     88% 0.01 in
04:08 49.8 °F 46.7 °F 29.90 in Calm     89% 0.01 in
04:13 49.7 °F 46.6 °F 29.90 in Calm     89% 0.01 in
04:18 49.7 °F 46.9 °F 29.90 in Calm     90% 0.01 in
04:23 49.6 °F 46.8 °F 29.89 in Calm     90% 0.00 in
04:28 49.7 °F 46.9 °F 29.89 in Calm     90% 0.00 in
04:33 49.8 °F 47.0 °F 29.89 in ENE 1.2 mph   90% 0.00 in
04:38 50.1 °F 47.3 °F 29.89 in ENE 1.2 mph   90% 0.00 in
04:43 50.3 °F 47.2 °F 29.89 in Calm     89% 0.00 in
04:48 50.3 °F 47.5 °F 29.88 in SE 1.0 mph 1.0 mph 90% 0.00 in
04:53 50.4 °F 47.3 °F 29.89 in SSW 1.2 mph 1.2 mph 89% 0.00 in
04:58 50.5 °F 47.4 °F 29.88 in Calm     89% 0.00 in
05:03 50.7 °F 47.3 °F 29.88 in Calm     88% 0.00 in
05:08 50.8 °F 47.4 °F 29.88 in Calm     88% 0.00 in
05:13 50.8 °F 47.4 °F 29.87 in Calm     88% 0.00 in
05:18 50.8 °F 47.4 °F 29.87 in Calm     88% 0.00 in
05:23 50.9 °F 47.5 °F 29.86 in Calm     88% 0.00 in
05:28 51.1 °F 47.7 °F 29.85 in Calm     88% 0.00 in
05:33 51.3 °F 47.6 °F 29.85 in Calm     87% 0.00 in
05:38 51.8 °F 47.1 °F 29.85 in SE 1.0 mph 1.0 mph 84% 0.00 in
05:43 52.4 °F 47.4 °F 29.85 in ESE 1.0 mph   83% 0.00 in
05:48 52.8 °F 47.5 °F 29.85 in SE 1.2 mph   82% 0.00 in
05:53 53.0 °F 47.3 °F 29.85 in SE 1.0 mph   81% 0.00 in
05:58 53.1 °F 47.1 °F 29.84 in Calm     80% 0.00 in
06:03 53.3 °F 47.6 °F 29.84 in Calm     81% 0.00 in
06:08 53.3 °F 47.3 °F 29.84 in Calm     80% 0.00 in
06:13 53.3 °F 47.3 °F 29.84 in Calm     80% 0.00 in
06:18 53.4 °F 47.4 °F 29.84 in Calm     80% 0.00 in
06:23 53.4 °F 47.7 °F 29.84 in Calm     81% 0.01 in
06:28 53.3 °F 47.9 °F 29.84 in Calm     82% 0.01 in
06:33 53.0 °F 48.0 °F 29.84 in Calm     83% 0.01 in
06:38 52.9 °F 47.9 °F 29.85 in SW 1.2 mph 1.2 mph 83% 0.01 in
06:43 52.8 °F 48.1 °F 29.84 in Calm     84% 0.01 in
06:48 52.5 °F 47.8 °F 29.84 in WSW 1.2 mph   84% 0.01 in
06:53 52.4 °F 47.7 °F 29.84 in Calm     84% 0.01 in
06:58 52.3 °F 47.6 °F 29.85 in ESE 1.2 mph   84% 0.02 in
07:03 52.4 °F 47.7 °F 29.86 in Calm     84% 0.02 in
07:08 52.8 °F 47.8 °F 29.86 in SSW 2.3 mph   83% 0.02 in
07:13 53.0 °F 48.3 °F 29.86 in Calm     84% 0.02 in
07:18 53.0 °F 48.3 °F 29.87 in Calm     84% 0.03 in
07:23 52.9 °F 48.5 °F 29.87 in Calm     85% 0.02 in
07:28 52.8 °F 48.7 °F 29.87 in Calm     86% 0.02 in
07:33 52.7 °F 48.9 °F 29.87 in Calm     87% 0.02 in
07:38 52.5 °F 48.7 °F 29.88 in Calm     87% 0.02 in
07:43 52.4 °F 48.9 °F 29.88 in Calm     88% 0.03 in
07:49 52.3 °F 48.9 °F 29.89 in Calm   0.1 mph 88% 0.03 in
07:54 52.2 °F 49.1 °F 29.89 in Calm     89% 0.03 in
07:59 52.1 °F 49.0 °F 29.89 in Calm   0.1 mph 89% 0.03 in
08:04 52.1 °F 49.3 °F 29.90 in SSW 2.3 mph 2.3 mph 90% 0.03 in
08:09 52.0 °F 49.5 °F 29.89 in South 1.2 mph   91% 0.06 in
08:14 51.9 °F 49.4 °F 29.89 in SW 2.3 mph 2.3 mph 91% 0.08 in
08:19 51.8 °F 49.5 °F 29.90 in South 1.2 mph 1.2 mph 92% 0.08 in
08:24 51.8 °F 49.8 °F 29.90 in SSE 1.2 mph 1.2 mph 93% 0.08 in
08:29 51.8 °F 49.8 °F 29.89 in SSE 2.0 mph 2.0 mph 93% 0.09 in
08:34 51.7 °F 49.7 °F 29.90 in South 2.3 mph 2.3 mph 93% 0.09 in
08:39 51.6 °F 49.6 °F 29.90 in SW 2.3 mph 2.3 mph 93% 0.08 in
08:44 51.6 °F 49.6 °F 29.90 in Calm     93% 0.08 in
08:49 51.4 °F 49.4 °F 29.90 in SW 1.2 mph   93% 0.09 in
08:54 51.4 °F 49.4 °F 29.90 in Calm     93% 0.09 in
08:59 51.6 °F 49.9 °F 29.90 in Calm     94% 0.08 in
09:04 51.8 °F 50.1 °F 29.90 in Calm     94% 0.07 in
09:09 52.5 °F 51.1 °F 29.90 in Calm     95% 0.05 in
09:14 52.9 °F 51.5 °F 29.90 in SW 1.2 mph   95% 0.03 in
09:19 53.0 °F 51.3 °F 29.90 in Calm     94% 0.02 in
09:24 53.1 °F 51.4 °F 29.90 in Calm     94% 0.02 in
09:29 53.4 °F 51.7 °F 29.90 in SW 1.2 mph 1.2 mph 94% 0.01 in
09:34 53.4 °F 51.7 °F 29.90 in Calm     94% 0.01 in
09:39 53.5 °F 51.5 °F 29.90 in South 1.2 mph 1.2 mph 93% 0.01 in
09:44 53.7 °F 52.0 °F 29.90 in SE 1.2 mph   94% 0.01 in
09:49 53.9 °F 51.9 °F 29.90 in South 1.2 mph   93% 0.00 in
09:54 54.1 °F 52.1 °F 29.90 in SE 1.2 mph   93% 0.00 in
09:59 54.2 °F 51.9 °F 29.90 in Calm     92% 0.00 in
10:04 54.5 °F 52.2 °F 29.91 in SE 1.2 mph   92% 0.00 in
10:09 54.8 °F 52.2 °F 29.91 in West 1.2 mph 1.2 mph 91% 0.00 in
10:14 54.9 °F 52.3 °F 29.92 in WSW 1.2 mph 1.2 mph 91% 0.00 in
10:19 54.8 °F 51.9 °F 29.91 in West 1.2 mph 1.2 mph 90% 0.00 in
10:24 54.7 °F 51.8 °F 29.91 in SW 1.2 mph   90% 0.00 in
10:29 54.6 °F 51.7 °F 29.91 in Calm     90% 0.00 in
10:34 54.7 °F 51.8 °F 29.91 in Calm     90% 0.00 in
10:39 54.6 °F 52.0 °F 29.90 in Calm     91% 0.00 in
10:44 54.6 °F 52.0 °F 29.89 in SW 1.2 mph   91% 0.00 in
10:49 54.6 °F 52.0 °F 29.90 in ESE 1.2 mph   91% 0.00 in
10:54 54.8 °F 52.2 °F 29.90 in WSW 1.2 mph   91% 0.00 in
10:59 55.1 °F 52.5 °F 29.90 in WSW 1.2 mph   91% 0.00 in
11:04 55.4 °F 52.8 °F 29.90 in Calm     91% 0.00 in
11:09 55.7 °F 52.8 °F 29.90 in SSE 1.2 mph   90% 0.00 in
11:14 56.0 °F 52.8 °F 29.89 in Calm     89% 0.00 in
11:19 56.1 °F 52.6 °F 29.89 in Calm     88% 0.00 in
11:24 56.2 °F 52.7 °F 29.89 in Calm     88% 0.00 in
11:29 56.4 °F 53.2 °F 29.88 in Calm   0.1 mph 89% 0.00 in
11:35 56.7 °F 53.2 °F 29.88 in SW 1.2 mph 1.2 mph 88% 0.00 in
11:40 57.0 °F 53.5 °F 29.88 in SW 1.2 mph   88% 0.00 in
11:45 57.2 °F 53.7 °F 29.88 in Calm     88% 0.00 in
11:50 57.5 °F 53.7 °F 29.87 in Calm     87% 0.00 in
11:55 57.6 °F 53.4 °F 29.87 in Calm     86% 0.00 in
12:00 57.8 °F 53.3 °F 29.87 in Calm     85% 0.00 in
12:05 57.9 °F 53.7 °F 29.87 in Calm     86% 0.00 in
12:10 58.2 °F 53.7 °F 29.87 in Calm     85% 0.00 in
12:15 58.4 °F 53.3 °F 29.87 in SSE 1.2 mph 1.2 mph 83% 0.00 in
12:20 58.7 °F 53.9 °F 29.87 in Calm     84% 0.00 in
12:25 59.0 °F 54.2 °F 29.86 in Calm   0.2 mph 84% 0.00 in
12:30 59.4 °F 54.2 °F 29.86 in Calm     83% 0.00 in
12:35 59.9 °F 54.7 °F 29.86 in Calm     83% 0.00 in
12:40 60.1 °F 53.6 °F 29.86 in SSW 2.3 mph 2.3 mph 79% 0.00 in
12:45 60.1 °F 53.9 °F 29.86 in WSW 1.2 mph 1.2 mph 80% 0.00 in
12:50 60.3 °F 54.1 °F 29.85 in SSW 1.2 mph   80% 0.00 in
12:55 60.3 °F 53.1 °F 29.85 in SSW 3.5 mph 3.5 mph 77% 0.00 in
13:00 60.1 °F 52.9 °F 29.85 in SSW 1.2 mph 1.2 mph 77% 0.00 in
13:06 59.8 °F 52.6 °F 29.85 in South 2.3 mph 2.3 mph 77% 0.00 in
13:11 59.7 °F 51.4 °F 29.84 in SSW 4.6 mph 4.6 mph 74% 0.00 in
13:16 60.2 °F 51.5 °F 29.85 in South 6.0 mph 6.0 mph 73% 0.00 in
13:21 60.8 °F 51.7 °F 29.85 in SSW 3.5 mph 3.5 mph 72% 0.00 in
13:26 61.6 °F 52.9 °F 29.85 in SE 2.3 mph 2.3 mph 73% 0.00 in
13:31 61.8 °F 51.9 °F 29.85 in SSE 3.5 mph 3.5 mph 70% 0.00 in
13:36 61.3 °F 51.4 °F 29.85 in South 3.5 mph 3.5 mph 70% 0.00 in
13:41 61.4 °F 51.1 °F 29.85 in South 3.5 mph 3.5 mph 69% 0.00 in
13:46 61.6 °F 51.7 °F 29.85 in SSW 2.3 mph 2.3 mph 70% 0.00 in
13:51 61.7 °F 52.2 °F 29.85 in WSW 1.2 mph 1.2 mph 71% 0.00 in
13:56 62.3 °F 52.4 °F 29.85 in SW 1.0 mph   70% 0.00 in
14:01 62.5 °F 51.8 °F 29.85 in SSW 1.2 mph 1.2 mph 68% 0.00 in
14:06 63.0 °F 51.9 °F 29.85 in South 3.5 mph 3.5 mph 67% 0.00 in
14:11 63.3 °F 51.7 °F 29.85 in SSE 2.3 mph 2.3 mph 66% 0.00 in
14:16 63.9 °F 51.9 °F 29.85 in SSW 3.5 mph 3.5 mph 65% 0.00 in
14:21 63.9 °F 51.5 °F 29.85 in South 2.3 mph 2.3 mph 64% 0.00 in
14:26 63.6 °F 50.8 °F 29.85 in South 2.0 mph 2.0 mph 63% 0.00 in
14:31 63.1 °F 50.7 °F 29.85 in SSE 1.2 mph 1.2 mph 64% 0.00 in
14:36 62.4 °F 50.5 °F 29.85 in South 2.3 mph 2.3 mph 65% 0.00 in
14:41 61.8 °F 50.3 °F 29.84 in SSE 2.3 mph 2.3 mph 66% 0.00 in
14:46 62.1 °F 51.0 °F 29.84 in West 1.2 mph 1.2 mph 67% 0.00 in
14:51 62.7 °F 50.8 °F 29.85 in SSE 1.2 mph 1.2 mph 65% 0.00 in
14:56 63.0 °F 51.0 °F 29.85 in SSE 3.5 mph 3.5 mph 65% 0.00 in
15:01 63.4 °F 51.4 °F 29.85 in SSE 2.3 mph 2.3 mph 65% 0.00 in
15:06 63.8 °F 51.4 °F 29.85 in ENE 2.3 mph 2.3 mph 64% 0.00 in
15:11 64.2 °F 51.3 °F 29.86 in WSW 2.3 mph 2.3 mph 63% 0.00 in
15:16 64.3 °F 51.4 °F 29.86 in Calm     63% 0.00 in
15:21 64.0 °F 50.7 °F 29.86 in SE 3.5 mph 3.5 mph 62% 0.00 in
15:26 63.2 °F 50.4 °F 29.86 in South 1.2 mph 1.2 mph 63% 0.00 in
15:31 62.6 °F 50.7 °F 29.86 in ENE 1.2 mph 1.2 mph 65% 0.00 in
15:36 62.0 °F 50.9 °F 29.87 in Calm     67% 0.00 in
15:38 61.8 °F 51.1 °F 29.87 in West 2.3 mph 2.3 mph 68% 0.00 in
15:43 61.3 °F 51.0 °F 29.87 in WNW 2.3 mph 2.3 mph 69% 0.00 in
15:48 61.0 °F 51.5 °F 29.87 in NNW 1.2 mph   71% 0.00 in
15:53 60.7 °F 52.4 °F 29.87 in West 3.0 mph 3.0 mph 74% 0.00 in
15:58 60.0 °F 52.4 °F 29.88 in NW 3.5 mph 3.5 mph 76% 0.01 in
16:03 59.3 °F 52.1 °F 29.88 in North 3.5 mph 3.5 mph 77% 0.01 in
16:08 58.1 °F 49.9 °F 29.89 in NNW 3.5 mph 3.5 mph 74% 0.01 in
16:13 57.2 °F 50.1 °F 29.89 in East 1.2 mph 1.2 mph 77% 0.01 in
16:18 56.6 °F 49.5 °F 29.90 in North 2.3 mph 2.3 mph 77% 0.01 in
16:23 56.3 °F 49.5 °F 29.91 in NW 1.2 mph 1.2 mph 78% 0.01 in
16:28 56.2 °F 50.4 °F 29.92 in NW 2.3 mph 2.3 mph 81% 0.01 in
16:33 55.9 °F 50.8 °F 29.92 in South 4.6 mph 4.6 mph 83% 0.02 in
16:38 55.1 °F 50.4 °F 29.92 in NNW 3.5 mph 3.5 mph 84% 0.03 in
16:43 54.6 °F 49.9 °F 29.93 in NW 2.3 mph 2.3 mph 84% 0.03 in
16:48 54.3 °F 49.9 °F 29.93 in NNW 3.5 mph 3.5 mph 85% 0.03 in
16:53 54.3 °F 49.9 °F 29.94 in WNW 9.2 mph 9.2 mph 85% 0.03 in
16:58 53.5 °F 50.0 °F 29.94 in NNW 5.8 mph 5.8 mph 88% 0.05 in
17:03 52.9 °F 50.0 °F 29.94 in NNE 2.3 mph 2.3 mph 90% 0.06 in
17:08 52.5 °F 49.9 °F 29.94 in NNE 3.5 mph 3.5 mph 91% 0.06 in
17:13 52.2 °F 49.7 °F 29.94 in West 3.5 mph 3.5 mph 91% 0.06 in
17:18 51.9 °F 49.4 °F 29.94 in ENE 2.3 mph 2.3 mph 91% 0.06 in
17:23 51.7 °F 49.2 °F 29.94 in ENE 3.0 mph 3.0 mph 91% 0.06 in
17:28 51.6 °F 49.1 °F 29.94 in NE 1.0 mph   91% 0.06 in
17:33 51.5 °F 49.0 °F 29.95 in NE 3.5 mph 3.5 mph 91% 0.05 in
17:38 51.3 °F 49.1 °F 29.95 in East 2.3 mph 2.3 mph 92% 0.04 in
17:43 51.2 °F 49.0 °F 29.95 in ENE 1.2 mph 1.2 mph 92% 0.04 in
17:48 51.2 °F 49.0 °F 29.95 in East 3.5 mph 3.5 mph 92% 0.04 in
17:53 51.2 °F 49.0 °F 29.95 in ENE 1.2 mph   92% 0.04 in
17:58 51.1 °F 48.9 °F 29.95 in North 1.2 mph 1.2 mph 92% 0.01 in
18:03 51.1 °F 48.9 °F 29.96 in NNW 1.2 mph 1.2 mph 92% 0.00 in
18:08 51.0 °F 48.8 °F 29.96 in WNW 1.2 mph 1.2 mph 92% 0.00 in
18:13 50.8 °F 48.6 °F 29.96 in WSW 1.2 mph   92% 0.00 in
18:18 50.6 °F 48.4 °F 29.97 in West 1.2 mph 1.2 mph 92% 0.00 in
18:23 50.4 °F 48.5 °F 29.97 in Calm     93% 0.00 in
18:28 50.3 °F 48.4 °F 29.97 in Calm     93% 0.00 in
18:33 50.1 °F 48.2 °F 29.97 in Calm     93% 0.00 in
18:38 50.0 °F 48.3 °F 29.98 in West 1.2 mph   94% 0.00 in
18:43 50.0 °F 48.3 °F 29.98 in Calm     94% 0.00 in
18:48 49.8 °F 48.1 °F 29.98 in Calm     94% 0.00 in
18:53 49.6 °F 47.9 °F 29.98 in Calm     94% 0.00 in
18:58 49.4 °F 47.7 °F 29.99 in Calm     94% 0.00 in
19:03 49.2 °F 47.5 °F 29.99 in Calm     94% 0.00 in
19:08 48.9 °F 47.2 °F 29.99 in Calm     94% 0.00 in
19:13 48.8 °F 47.2 °F 29.99 in Calm     94% 0.00 in
19:18 48.7 °F 47.3 °F 29.99 in Calm     95% 0.00 in
19:23 48.5 °F 47.1 °F 29.99 in Calm     95% 0.00 in
19:28 48.2 °F 46.6 °F 30.00 in Calm     94% 0.00 in
19:33 48.0 °F 46.4 °F 30.00 in Calm     94% 0.00 in
19:38 47.6 °F 46.0 °F 30.00 in Calm     94% 0.00 in
19:43 47.5 °F 46.1 °F 30.00 in Calm     95% 0.00 in
19:48 47.4 °F 46.0 °F 30.00 in Calm     95% 0.00 in
19:53 47.7 °F 46.6 °F 30.01 in Calm     96% 0.00 in
19:58 47.6 °F 46.2 °F 30.01 in Calm     95% 0.00 in
20:03 47.5 °F 46.1 °F 30.01 in Calm     95% 0.00 in
20:08 47.1 °F 45.7 °F 30.01 in Calm     95% 0.00 in
20:13 46.9 °F 45.5 °F 30.02 in Calm     95% 0.00 in
20:18 47.0 °F 45.9 °F 30.02 in Calm     96% 0.00 in
20:23 47.1 °F 46.0 °F 30.02 in Calm     96% 0.00 in
20:28 47.3 °F 46.2 °F 30.02 in Calm     96% 0.00 in
20:33 47.4 °F 46.3 °F 30.01 in Calm     96% 0.00 in
20:38 47.5 °F 46.4 °F 30.02 in Calm     96% 0.00 in
20:44 47.7 °F 46.6 °F 30.02 in Calm     96% 0.00 in
20:49 47.8 °F 46.7 °F 30.02 in Calm     96% 0.00 in
20:54 47.9 °F 46.8 °F 30.02 in Calm     96% 0.00 in
20:59 48.0 °F 46.9 °F 30.03 in Calm     96% 0.00 in
21:00 48.0 °F 46.9 °F 30.03 in Calm     96% 0.00 in
21:01 48.0 °F 46.9 °F 30.03 in West 1.2 mph 1.2 mph 96% 0.00 in
21:06 48.2 °F 47.4 °F 30.03 in Calm     97% 0.01 in
21:11 48.3 °F 47.2 °F 30.03 in Calm     96% 0.01 in
21:16 48.2 °F 47.1 °F 30.04 in Calm   0.1 mph 96% 0.01 in
21:21 48.1 °F 47.0 °F 30.05 in Calm     96% 0.01 in
21:26 48.1 °F 47.0 °F 30.05 in Calm     96% 0.01 in
21:31 48.0 °F 46.9 °F 30.06 in Calm     96% 0.01 in
21:36 47.9 °F 46.8 °F 30.06 in Calm     96% 0.01 in
21:41 47.7 °F 46.6 °F 30.06 in Calm     96% 0.01 in
21:46 47.7 °F 46.6 °F 30.06 in Calm     96% 0.01 in
21:48 47.7 °F 46.6 °F 30.06 in Calm     96% 0.01 in
21:53 47.7 °F 46.6 °F 30.07 in Calm     96% 0.01 in
21:58 47.8 °F 46.7 °F 30.07 in Calm     96% 0.01 in
22:03 47.7 °F 46.6 °F 30.07 in Calm     96% 0.01 in
22:08 47.5 °F 46.4 °F 30.08 in Calm     96% 0.00 in
22:13 47.4 °F 46.3 °F 30.08 in Calm     96% 0.00 in
22:18 47.3 °F 46.2 °F 30.08 in NNW 1.2 mph   96% 0.00 in
22:23 47.3 °F 46.2 °F 30.09 in Calm     96% 0.00 in
22:28 47.3 °F 46.2 °F 30.09 in Calm     96% 0.00 in
22:33 47.3 °F 46.2 °F 30.09 in Calm     96% 0.00 in
22:38 47.3 °F 46.2 °F 30.08 in Calm     96% 0.00 in
22:43 47.3 °F 46.5 °F 30.08 in NNW 1.0 mph   97% 0.00 in
22:48 47.4 °F 46.6 °F 30.09 in Calm     97% 0.00 in
22:53 47.5 °F 46.7 °F 30.10 in Calm     97% 0.00 in
22:58 47.5 °F 46.7 °F 30.10 in Calm     97% 0.00 in
23:03 47.5 °F 46.7 °F 30.10 in Calm     97% 0.00 in
23:08 47.5 °F 46.7 °F 30.10 in Calm     97% 0.00 in
23:13 47.6 °F 46.8 °F 30.10 in Calm     97% 0.00 in
23:18 47.6 °F 46.8 °F 30.11 in Calm     97% 0.00 in
23:23 47.7 °F 46.9 °F 30.11 in Calm     97% 0.00 in
23:28 47.7 °F 46.9 °F 30.11 in Calm     97% 0.00 in
23:33 47.7 °F 46.9 °F 30.11 in Calm     97% 0.00 in
23:38 47.6 °F 46.8 °F 30.12 in NW 1.2 mph   97% 0.00 in
23:43 47.6 °F 46.8 °F 30.12 in Calm     97% 0.00 in
23:48 47.6 °F 46.8 °F 30.13 in NNW 1.2 mph   97% 0.00 in
23:53 47.6 °F 46.8 °F 30.13 in NNW 1.2 mph 1.2 mph 97% 0.00 in
23:58 47.6 °F 46.8 °F 30.13 in North 1.2 mph 1.2 mph 97% 0.00 in
Compliments of Weather Underground